createdAt,value
2022-12-31T00:01:26.254Z,10.81
2022-12-31T00:03:53.250Z,10.78
2022-12-31T00:06:27.345Z,10.75
2022-12-31T00:08:55.111Z,10.74
2022-12-31T00:11:22.657Z,10.79
2022-12-31T00:13:50.129Z,10.83
2022-12-31T00:16:21.048Z,10.85
2022-12-31T00:18:49.012Z,10.87
2022-12-31T00:21:16.211Z,10.88
2022-12-31T00:23:43.267Z,10.91
2022-12-31T00:26:11.791Z,10.94
2022-12-31T00:28:39.327Z,10.96
2022-12-31T00:31:16.649Z,10.99
2022-12-31T00:33:43.628Z,11.02
2022-12-31T00:36:12.628Z,11.06
2022-12-31T00:38:40.291Z,11.12
2022-12-31T00:41:07.202Z,11.18
2022-12-31T00:43:34.536Z,11.25
2022-12-31T00:46:01.504Z,11.31
2022-12-31T00:48:28.715Z,11.36
2022-12-31T00:50:55.993Z,11.41
2022-12-31T00:53:23.253Z,11.46
2022-12-31T00:55:50.293Z,11.51
2022-12-31T00:58:17.203Z,11.54
2022-12-31T01:00:44.190Z,11.56
2022-12-31T01:03:11.057Z,11.55
2022-12-31T01:05:37.790Z,11.56
2022-12-31T01:08:05.558Z,11.53
2022-12-31T01:10:50.817Z,11.51
2022-12-31T01:13:17.738Z,11.51
2022-12-31T01:15:44.409Z,11.50
2022-12-31T01:18:11.578Z,11.49
2022-12-31T01:20:39.226Z,11.47
2022-12-31T01:23:06.439Z,11.46
2022-12-31T01:25:37.090Z,11.45
2022-12-31T01:28:04.709Z,11.43
2022-12-31T01:30:31.779Z,11.42
2022-12-31T01:32:58.567Z,11.41
2022-12-31T01:35:25.789Z,11.38
2022-12-31T01:37:52.674Z,11.39
2022-12-31T01:40:19.369Z,11.38
2022-12-31T01:42:53.466Z,11.38
2022-12-31T01:45:20.248Z,11.37
2022-12-31T01:47:49.430Z,11.35
2022-12-31T01:50:22.355Z,11.32
2022-12-31T01:52:51.054Z,11.33
2022-12-31T01:55:27.736Z,11.32
2022-12-31T01:57:57.807Z,11.35
2022-12-31T02:00:24.556Z,11.36
2022-12-31T02:02:51.595Z,11.37
2022-12-31T02:05:23.126Z,11.40
2022-12-31T02:07:50.610Z,11.42
2022-12-31T02:10:17.578Z,11.45
2022-12-31T02:12:44.436Z,11.47
2022-12-31T02:15:11.318Z,11.50
2022-12-31T02:17:38.049Z,11.53
2022-12-31T02:20:23.508Z,11.55
2022-12-31T02:22:53.255Z,11.57
2022-12-31T02:25:38.615Z,11.58
2022-12-31T02:28:23.897Z,11.58
2022-12-31T02:30:54.364Z,11.54
2022-12-31T02:33:32.840Z,11.50
2022-12-31T02:36:02.465Z,11.47
2022-12-31T02:38:32.099Z,11.45
2022-12-31T02:40:59.889Z,11.42
2022-12-31T02:43:26.829Z,11.40
2022-12-31T02:45:59.354Z,11.40
2022-12-31T02:48:35.649Z,11.38
2022-12-31T02:51:05.473Z,11.38
2022-12-31T02:53:44.008Z,11.39
2022-12-31T02:56:10.773Z,11.39
2022-12-31T02:58:59.037Z,11.41
2022-12-31T03:01:46.999Z,11.46
2022-12-31T03:04:32.604Z,11.51
2022-12-31T03:07:06.892Z,11.55
2022-12-31T03:09:34.919Z,11.57
2022-12-31T03:12:20.567Z,11.58
2022-12-31T03:14:47.487Z,11.60
2022-12-31T03:17:14.195Z,11.61
2022-12-31T03:19:59.467Z,11.61
2022-12-31T03:22:28.878Z,11.60
2022-12-31T03:25:16.018Z,11.60
2022-12-31T03:27:44.838Z,11.59
2022-12-31T03:30:12.178Z,11.55
2022-12-31T03:32:39.037Z,11.56
2022-12-31T03:35:06.608Z,11.52
2022-12-31T03:37:33.367Z,11.50
2022-12-31T03:40:00.168Z,11.46
2022-12-31T03:42:27.017Z,11.43
2022-12-31T03:44:53.704Z,11.43
2022-12-31T03:47:20.601Z,11.43
2022-12-31T03:49:47.247Z,11.47
2022-12-31T03:52:14.079Z,11.47
2022-12-31T03:54:40.776Z,11.46
2022-12-31T03:57:07.572Z,11.43
2022-12-31T03:59:34.330Z,11.41
2022-12-31T04:02:01.456Z,11.39
2022-12-31T04:04:28.399Z,11.36
2022-12-31T04:06:55.119Z,11.36
2022-12-31T04:09:21.922Z,11.36
2022-12-31T04:11:48.691Z,11.38
2022-12-31T04:14:17.273Z,11.39
2022-12-31T04:16:44.563Z,11.40
2022-12-31T04:19:12.888Z,11.43
2022-12-31T04:21:39.601Z,11.45
2022-12-31T04:24:07.139Z,11.45
2022-12-31T04:26:34.299Z,11.43
2022-12-31T04:29:00.989Z,11.43
2022-12-31T04:31:27.984Z,11.45
2022-12-31T04:33:54.685Z,11.42
2022-12-31T04:36:21.579Z,11.26
2022-12-31T04:38:48.296Z,11.39
2022-12-31T04:41:17.970Z,11.36
2022-12-31T04:43:52.113Z,11.29
2022-12-31T04:46:20.436Z,11.24
2022-12-31T04:48:47.290Z,11.19
2022-12-31T04:51:14.461Z,11.12
2022-12-31T04:53:41.322Z,11.05
2022-12-31T04:56:08.909Z,11.02
2022-12-31T04:58:36.183Z,10.97
2022-12-31T05:01:03.197Z,10.92
2022-12-31T05:03:30.208Z,10.89
2022-12-31T05:06:01.027Z,10.84
2022-12-31T05:08:27.793Z,10.82
2022-12-31T05:10:54.554Z,10.79
2022-12-31T05:13:25.735Z,10.75
2022-12-31T05:15:56.330Z,10.74
2022-12-31T05:18:23.450Z,10.72
2022-12-31T05:20:50.546Z,10.68
2022-12-31T05:23:17.290Z,10.64
2022-12-31T05:25:44.876Z,10.60
2022-12-31T05:28:11.974Z,10.58
2022-12-31T05:30:38.783Z,10.51
2022-12-31T05:33:05.576Z,10.46
2022-12-31T05:35:32.337Z,10.43
2022-12-31T05:38:00.024Z,10.38
2022-12-31T05:40:27.239Z,10.32
2022-12-31T05:42:54.058Z,10.24
2022-12-31T05:45:26.816Z,10.19
2022-12-31T05:47:57.085Z,10.12
2022-12-31T05:50:23.782Z,10.05
2022-12-31T05:52:55.649Z,10.05
2022-12-31T05:55:22.482Z,10.02
2022-12-31T05:57:49.218Z,10.05
2022-12-31T06:00:16.130Z,10.06
2022-12-31T06:02:43.165Z,10.10
2022-12-31T06:05:10.196Z,10.09
2022-12-31T06:07:36.921Z,10.11
2022-12-31T06:10:04.596Z,10.08
2022-12-31T06:12:31.352Z,10.07
2022-12-31T06:14:58.142Z,10.05
2022-12-31T06:17:24.995Z,10.06
2022-12-31T06:19:51.870Z,10.06
2022-12-31T06:22:18.557Z,10.06
2022-12-31T06:24:45.339Z,10.07
2022-12-31T06:27:11.986Z,10.07
2022-12-31T06:29:38.807Z,10.10
2022-12-31T06:32:05.810Z,10.13
2022-12-31T06:34:32.599Z,10.16
2022-12-31T06:36:59.736Z,10.19
2022-12-31T06:39:27.732Z,10.25
2022-12-31T06:41:54.666Z,10.29
2022-12-31T06:44:22.675Z,10.35
2022-12-31T06:46:50.044Z,10.39
2022-12-31T06:49:17.135Z,10.45
2022-12-31T06:51:46.223Z,10.52
2022-12-31T06:54:13.731Z,10.55
2022-12-31T06:56:40.803Z,10.58
2022-12-31T06:59:15.435Z,10.62
2022-12-31T07:01:48.360Z,10.69
2022-12-31T07:04:33.979Z,10.77
2022-12-31T07:07:06.591Z,10.90
2022-12-31T07:09:38.272Z,10.93
2022-12-31T07:12:28.289Z,10.94
2022-12-31T07:15:02.678Z,10.98
2022-12-31T07:17:29.454Z,11.05
2022-12-31T07:20:01.168Z,10.95
2022-12-31T07:22:28.262Z,11.32
2022-12-31T07:24:55.086Z,11.38
2022-12-31T07:27:27.723Z,11.48
2022-12-31T07:30:09.805Z,11.66
2022-12-31T07:32:36.934Z,11.78
2022-12-31T07:35:03.649Z,12.19
2022-12-31T07:37:56.839Z,12.28
2022-12-31T07:40:32.619Z,12.22
2022-12-31T07:43:37.836Z,12.12
2022-12-31T07:46:10.333Z,12.25
2022-12-31T07:48:37.299Z,12.63
2022-12-31T07:51:05.274Z,12.97
2022-12-31T07:53:32.200Z,13.22
2022-12-31T07:56:00.450Z,13.34
2022-12-31T07:58:47.506Z,13.44
2022-12-31T08:01:16.598Z,13.80
2022-12-31T08:03:52.240Z,14.15
2022-12-31T08:06:25.195Z,14.34
2022-12-31T08:09:12.065Z,14.23
2022-12-31T08:11:38.825Z,14.41
2022-12-31T08:14:08.829Z,14.73
2022-12-31T08:16:35.772Z,15.05
2022-12-31T08:19:02.749Z,14.92
2022-12-31T08:21:35.019Z,14.75
2022-12-31T08:24:02.000Z,14.94
2022-12-31T08:26:37.739Z,14.66
2022-12-31T08:29:25.231Z,14.34
2022-12-31T08:32:02.591Z,14.10
2022-12-31T08:34:29.341Z,13.97
2022-12-31T08:37:01.543Z,13.93
2022-12-31T08:39:48.435Z,13.81
2022-12-31T08:42:33.867Z,13.66
2022-12-31T08:45:10.331Z,13.59
2022-12-31T08:47:39.891Z,13.56
2022-12-31T08:50:07.150Z,13.51
2022-12-31T08:52:33.983Z,13.49
2022-12-31T08:55:01.322Z,13.48
2022-12-31T08:57:33.772Z,13.46
2022-12-31T09:00:07.043Z,13.45
2022-12-31T09:02:48.541Z,13.40
2022-12-31T09:05:15.402Z,13.35
2022-12-31T09:08:00.858Z,13.35
2022-12-31T09:10:33.497Z,13.33
2022-12-31T09:13:06.537Z,13.31
2022-12-31T09:15:33.897Z,13.28
2022-12-31T09:18:00.759Z,13.28
2022-12-31T09:20:42.408Z,13.27
2022-12-31T09:23:11.120Z,13.28
2022-12-31T09:25:43.001Z,13.30
2022-12-31T09:28:31.929Z,13.33
2022-12-31T09:31:02.403Z,13.37
2022-12-31T09:33:43.004Z,13.43
2022-12-31T09:36:30.467Z,13.50
2022-12-31T09:39:03.106Z,13.61
2022-12-31T09:41:32.830Z,13.71
2022-12-31T09:44:18.981Z,13.93
2022-12-31T09:46:45.783Z,14.33
2022-12-31T09:49:12.444Z,14.51
2022-12-31T09:51:39.294Z,14.49
2022-12-31T09:54:21.128Z,14.40
2022-12-31T09:56:59.154Z,14.58
2022-12-31T09:59:35.006Z,14.98
2022-12-31T10:02:24.306Z,16.17
2022-12-31T10:04:56.444Z,17.39
2022-12-31T10:07:44.875Z,18.01
2022-12-31T10:10:37.265Z,18.72
2022-12-31T10:13:22.060Z,19.11
2022-12-31T10:16:01.793Z,19.55
2022-12-31T10:18:32.210Z,20.21
2022-12-31T10:21:11.102Z,20.62
2022-12-31T10:23:43.893Z,20.91
2022-12-31T10:26:18.964Z,21.28
2022-12-31T10:28:56.469Z,21.54
2022-12-31T10:31:35.568Z,21.80
2022-12-31T10:34:25.753Z,22.09
2022-12-31T10:36:54.241Z,22.27
2022-12-31T10:39:30.002Z,22.18
2022-12-31T10:42:10.125Z,21.08
2022-12-31T10:44:45.923Z,20.05
2022-12-31T10:47:31.787Z,19.41
2022-12-31T10:50:15.327Z,19.15
2022-12-31T10:52:54.478Z,19.05
2022-12-31T10:55:33.502Z,20.17
2022-12-31T10:58:23.470Z,21.41
2022-12-31T11:01:09.173Z,22.23
2022-12-31T11:03:36.299Z,22.36
2022-12-31T11:06:06.044Z,22.69
2022-12-31T11:08:45.237Z,23.19
2022-12-31T11:11:19.183Z,23.45
2022-12-31T11:13:58.132Z,23.73
2022-12-31T11:17:00.310Z,24.18
2022-12-31T11:19:33.112Z,24.93
2022-12-31T11:22:08.727Z,25.39
2022-12-31T11:24:35.668Z,25.67
2022-12-31T11:27:21.013Z,25.53
2022-12-31T11:29:53.613Z,24.34
2022-12-31T11:32:31.223Z,23.46
2022-12-31T11:35:24.074Z,22.27
2022-12-31T11:37:53.078Z,21.22
2022-12-31T11:40:20.073Z,20.36
2022-12-31T11:43:00.983Z,19.79
2022-12-31T11:45:50.555Z,19.43
2022-12-31T11:48:38.021Z,19.54
2022-12-31T11:51:04.979Z,20.56
2022-12-31T11:53:40.927Z,21.16
2022-12-31T11:56:17.821Z,22.26
2022-12-31T11:58:49.773Z,22.90
2022-12-31T12:01:36.962Z,23.13
2022-12-31T12:04:04.037Z,23.62
2022-12-31T12:06:32.042Z,23.73
2022-12-31T12:09:06.490Z,24.28
2022-12-31T12:11:35.807Z,24.86
2022-12-31T12:14:18.711Z,25.12
2022-12-31T12:16:45.592Z,25.19
2022-12-31T12:19:17.684Z,25.34
2022-12-31T12:21:49.397Z,25.29
2022-12-31T12:24:25.397Z,25.18
2022-12-31T12:26:52.410Z,24.93
2022-12-31T12:29:21.059Z,23.69
2022-12-31T12:31:58.171Z,22.52
2022-12-31T12:34:31.909Z,22.22
2022-12-31T12:36:59.196Z,22.25
2022-12-31T12:39:27.276Z,21.42
2022-12-31T12:42:05.626Z,20.62
2022-12-31T12:44:32.502Z,19.92
2022-12-31T12:46:59.579Z,19.24
2022-12-31T12:49:27.861Z,18.96
2022-12-31T12:51:54.546Z,18.80
2022-12-31T12:54:34.831Z,18.38
2022-12-31T12:57:07.525Z,17.88
2022-12-31T12:59:57.181Z,17.56
2022-12-31T13:02:36.227Z,17.39
2022-12-31T13:05:27.917Z,17.17
2022-12-31T13:08:13.511Z,17.23
2022-12-31T13:10:40.301Z,17.08
2022-12-31T13:13:24.194Z,16.97
2022-12-31T13:15:52.028Z,16.80
2022-12-31T13:18:18.785Z,16.58
2022-12-31T13:20:56.853Z,16.45
2022-12-31T13:23:29.087Z,16.26
2022-12-31T13:26:16.719Z,16.13
2022-12-31T13:28:46.256Z,15.96
2022-12-31T13:31:16.479Z,15.89
2022-12-31T13:33:59.350Z,15.86
2022-12-31T13:36:27.782Z,15.91
2022-12-31T13:38:56.091Z,15.79
2022-12-31T13:41:28.498Z,15.74
2022-12-31T13:44:13.702Z,15.68
2022-12-31T13:46:56.700Z,15.63
2022-12-31T13:49:32.205Z,15.42
2022-12-31T13:51:58.918Z,15.50
2022-12-31T13:54:28.560Z,15.47
2022-12-31T13:56:56.755Z,15.39
2022-12-31T13:59:36.657Z,15.31
2022-12-31T14:02:06.694Z,15.24
2022-12-31T14:04:33.527Z,15.18
2022-12-31T14:07:06.485Z,15.12
2022-12-31T14:09:34.601Z,14.99
2022-12-31T14:12:07.365Z,14.91
2022-12-31T14:14:58.182Z,14.84
2022-12-31T14:17:25.000Z,14.71
2022-12-31T14:20:03.871Z,14.63
2022-12-31T14:22:30.661Z,14.53
2022-12-31T14:24:58.272Z,14.44
2022-12-31T14:27:40.731Z,14.36
2022-12-31T14:30:15.655Z,14.30
2022-12-31T14:32:49.987Z,14.24
2022-12-31T14:35:35.631Z,14.20
2022-12-31T14:38:14.643Z,14.15
2022-12-31T14:40:59.949Z,14.11
2022-12-31T14:43:51.376Z,14.06
2022-12-31T14:46:43.061Z,14.02
2022-12-31T14:49:12.735Z,13.99
2022-12-31T14:51:39.863Z,13.97
2022-12-31T14:54:28.760Z,13.95
2022-12-31T14:56:56.137Z,13.89
2022-12-31T14:59:25.935Z,13.88
2022-12-31T15:01:52.871Z,13.84
2022-12-31T15:04:39.213Z,13.82
2022-12-31T15:07:27.646Z,13.80
2022-12-31T15:10:10.607Z,13.78
2022-12-31T15:13:01.170Z,13.72
2022-12-31T15:15:33.581Z,13.67
2022-12-31T15:18:10.477Z,13.65
2022-12-31T15:20:55.633Z,13.62
2022-12-31T15:23:24.051Z,13.56
2022-12-31T15:25:58.500Z,13.53
2022-12-31T15:28:36.289Z,13.51
2022-12-31T15:31:06.109Z,13.49
2022-12-31T15:33:36.590Z,13.47
2022-12-31T15:36:20.539Z,13.07
2022-12-31T15:38:48.028Z,13.44
2022-12-31T15:41:28.981Z,13.42
2022-12-31T15:43:55.812Z,13.37
2022-12-31T15:46:28.501Z,13.34
2022-12-31T15:49:05.975Z,13.33
2022-12-31T15:51:54.953Z,13.30
2022-12-31T15:54:29.003Z,13.27
2022-12-31T15:56:55.897Z,13.24
2022-12-31T15:59:23.420Z,13.21
2022-12-31T16:01:50.522Z,13.18
2022-12-31T16:04:19.148Z,13.14
2022-12-31T16:06:50.661Z,13.10
2022-12-31T16:09:25.921Z,13.06
2022-12-31T16:11:53.828Z,13.04
2022-12-31T16:14:26.675Z,13.04
2022-12-31T16:16:57.440Z,13.02
2022-12-31T16:19:29.684Z,13.01
2022-12-31T16:21:57.357Z,12.99
2022-12-31T16:24:24.050Z,12.98
2022-12-31T16:26:53.204Z,12.97
2022-12-31T16:29:21.788Z,12.96
2022-12-31T16:31:49.448Z,12.95
2022-12-31T16:34:22.287Z,12.92
2022-12-31T16:36:59.347Z,12.91
2022-12-31T16:39:28.041Z,12.88
2022-12-31T16:42:27.468Z,12.85
2022-12-31T16:44:55.813Z,12.82
2022-12-31T16:47:36.208Z,12.79
2022-12-31T16:50:04.202Z,12.77
2022-12-31T16:52:33.027Z,12.75
2022-12-31T16:55:00.254Z,12.73
2022-12-31T16:57:30.485Z,12.69
2022-12-31T17:00:02.395Z,12.66
2022-12-31T17:02:38.610Z,12.64
2022-12-31T17:05:17.418Z,12.63
2022-12-31T17:07:44.548Z,12.61
2022-12-31T17:10:20.688Z,12.60
2022-12-31T17:15:40.828Z,12.60
2022-12-31T17:18:08.227Z,12.59
2022-12-31T17:20:35.277Z,12.58
2022-12-31T17:23:07.811Z,12.58
2022-12-31T17:25:36.808Z,12.57
2022-12-31T17:28:05.421Z,12.58
2022-12-31T17:30:40.243Z,12.58
2022-12-31T17:33:22.086Z,12.58
2022-12-31T17:35:49.803Z,12.57
2022-12-31T17:38:22.655Z,12.58
2022-12-31T17:40:54.080Z,12.58
2022-12-31T17:43:22.385Z,12.58
2022-12-31T17:45:52.821Z,12.90
2022-12-31T17:48:20.572Z,13.09
2022-12-31T17:50:51.652Z,13.15
2022-12-31T17:53:18.814Z,13.19
2022-12-31T17:55:47.576Z,13.20
2022-12-31T17:58:18.747Z,13.23
2022-12-31T18:00:45.633Z,13.25
2022-12-31T18:03:12.442Z,13.26
2022-12-31T18:05:39.465Z,13.28
2022-12-31T18:08:06.192Z,13.27
2022-12-31T18:10:36.696Z,13.29
2022-12-31T18:13:05.721Z,13.32
2022-12-31T18:15:32.585Z,13.32
2022-12-31T18:17:59.570Z,13.33
2022-12-31T18:20:26.518Z,13.31
2022-12-31T18:22:53.532Z,13.31
2022-12-31T18:25:21.652Z,13.32
2022-12-31T18:27:49.158Z,13.32
2022-12-31T18:30:18.813Z,13.32
2022-12-31T18:32:46.275Z,13.32
2022-12-31T18:35:33.275Z,13.31
2022-12-31T18:38:01.812Z,13.30
2022-12-31T18:40:28.709Z,13.30
2022-12-31T18:42:59.682Z,13.26
2022-12-31T18:45:29.663Z,13.25
2022-12-31T18:47:56.548Z,13.28
2022-12-31T18:50:23.849Z,13.29
2022-12-31T18:52:50.688Z,13.29
2022-12-31T18:55:20.612Z,13.30
2022-12-31T18:57:47.462Z,13.29
2022-12-31T19:00:14.687Z,13.29
2022-12-31T19:02:41.537Z,13.27
2022-12-31T19:05:34.757Z,13.27
2022-12-31T19:08:01.666Z,13.27
2022-12-31T19:10:29.012Z,13.27
2022-12-31T19:12:55.876Z,13.27
2022-12-31T19:15:22.629Z,13.28
2022-12-31T19:17:49.476Z,13.28
2022-12-31T19:20:16.155Z,13.29
2022-12-31T19:22:43.014Z,13.27
2022-12-31T19:25:28.523Z,13.25
2022-12-31T19:27:55.410Z,13.22
2022-12-31T19:30:32.271Z,13.21
2022-12-31T19:32:59.524Z,13.23
2022-12-31T19:35:26.775Z,13.25
2022-12-31T19:37:54.342Z,13.27
2022-12-31T19:40:22.713Z,13.30
2022-12-31T19:42:50.331Z,13.32
2022-12-31T19:45:20.764Z,13.32
2022-12-31T19:47:47.677Z,13.34
2022-12-31T19:50:18.946Z,13.33
2022-12-31T19:52:46.590Z,13.35
2022-12-31T19:55:14.709Z,13.33
2022-12-31T19:57:41.912Z,13.34
2022-12-31T20:00:10.982Z,13.33
2022-12-31T20:02:41.226Z,13.33
2022-12-31T20:05:08.290Z,13.32
2022-12-31T20:07:35.074Z,13.31
2022-12-31T20:10:01.905Z,13.30
2022-12-31T20:12:28.682Z,13.32
2022-12-31T20:14:55.483Z,13.33
2022-12-31T20:17:22.744Z,13.31
2022-12-31T20:19:50.829Z,13.32
2022-12-31T20:22:17.615Z,13.31
2022-12-31T20:24:45.948Z,13.29
2022-12-31T20:27:18.385Z,13.27
2022-12-31T20:29:45.643Z,13.27
2022-12-31T20:32:12.364Z,13.26
2022-12-31T20:34:39.141Z,13.25
2022-12-31T20:37:05.903Z,13.26
2022-12-31T20:39:32.697Z,13.26
2022-12-31T20:41:59.428Z,13.25
2022-12-31T20:44:26.272Z,13.25
2022-12-31T20:46:53.138Z,13.25
2022-12-31T20:49:31.340Z,13.23
2022-12-31T20:52:06.883Z,13.25
2022-12-31T20:54:33.782Z,13.25
2022-12-31T20:57:00.591Z,13.26
2022-12-31T20:59:27.874Z,13.26
2022-12-31T21:02:20.520Z,13.26
2022-12-31T21:04:42.026Z,13.28
2022-12-31T21:07:08.865Z,13.28
2022-12-31T21:09:35.676Z,13.28
2022-12-31T21:12:20.917Z,13.27
2022-12-31T21:14:47.781Z,13.26
2022-12-31T21:17:14.427Z,13.27
2022-12-31T21:19:41.251Z,13.28
2022-12-31T21:22:09.380Z,13.27
2022-12-31T21:24:39.147Z,13.28
2022-12-31T21:27:06.383Z,13.29
2022-12-31T21:29:35.526Z,13.30
2022-12-31T21:32:05.133Z,13.31
2022-12-31T21:34:32.249Z,13.32
2022-12-31T21:37:00.245Z,13.34
2022-12-31T21:39:27.323Z,13.34
2022-12-31T21:41:55.437Z,13.33
2022-12-31T21:44:24.658Z,13.29
2022-12-31T21:47:33.924Z,12.89
2022-12-31T21:49:45.113Z,12.80
2022-12-31T21:52:27.802Z,12.79
2022-12-31T21:55:16.855Z,12.76
2022-12-31T21:58:15.523Z,12.78
2022-12-31T22:00:52.473Z,12.77
2022-12-31T22:03:28.078Z,12.78
2022-12-31T22:06:00.281Z,12.79
2022-12-31T22:08:27.694Z,12.80
2022-12-31T22:10:55.213Z,12.81
2022-12-31T22:13:22.398Z,12.81
2022-12-31T22:15:56.336Z,12.81
2022-12-31T22:18:28.136Z,12.82
2022-12-31T22:21:02.454Z,12.81
2022-12-31T22:23:30.514Z,12.79
2022-12-31T22:25:57.164Z,12.75
2022-12-31T22:28:40.132Z,12.73
2022-12-31T22:31:11.728Z,12.75
2022-12-31T22:33:40.359Z,12.75
2022-12-31T22:36:10.782Z,12.73
2022-12-31T22:38:38.320Z,12.71
2022-12-31T22:41:13.572Z,12.71
2022-12-31T22:43:43.538Z,12.71
2022-12-31T22:46:15.710Z,12.73
2022-12-31T22:48:42.801Z,12.73
2022-12-31T22:51:10.920Z,12.77
2022-12-31T22:53:40.035Z,12.78
2022-12-31T22:56:08.851Z,12.79
2022-12-31T22:58:35.781Z,12.80
2022-12-31T23:01:10.139Z,12.82
2022-12-31T23:03:38.129Z,12.81
2022-12-31T23:06:07.279Z,12.81
2022-12-31T23:08:36.634Z,12.83
2022-12-31T23:11:09.690Z,12.83
2022-12-31T23:13:57.567Z,12.84
2022-12-31T23:16:45.571Z,12.85
2022-12-31T23:19:31.228Z,12.85
2022-12-31T23:22:16.681Z,12.84
2022-12-31T23:24:44.442Z,12.83
2022-12-31T23:27:11.447Z,12.82
2022-12-31T23:29:45.974Z,12.81
2022-12-31T23:32:18.075Z,12.80
2022-12-31T23:34:49.193Z,12.81
2022-12-31T23:37:16.435Z,12.82
2022-12-31T23:39:46.374Z,12.83
2022-12-31T23:42:16.794Z,12.82
2022-12-31T23:44:44.626Z,12.84
2022-12-31T23:47:14.749Z,12.86
2022-12-31T23:49:43.593Z,12.85
2022-12-31T23:52:12.963Z,12.83
2022-12-31T23:54:39.755Z,12.87
2022-12-31T23:57:06.535Z,12.87
2022-12-31T23:59:33.465Z,12.87
